Time;durP1;ratioP1;P1;durP2;ratioP2;P2;SDS_P1;SDS_P2;PMS_P1;PMS_P2;Temp;Humidity;BMP_temperature;BMP_pressure;BME280_temperature;BME280_humidity;BME280_pressure;Samples;Min_cycle;Max_cycle;Signal;HPM_P1;HPM_P2
2021/06/24 00:02:26;;;;;;;;;;;;;;;20.57;76.92;99127.84;2138069;83;21536;-66
2021/06/24 00:05:28;;;;;;;27.07;14.77;;;;;;;20.63;77.00;99125.06;2136192;83;20183;-65
2021/06/24 00:08:29;;;;;;;27.98;14.07;;;;;;;20.76;76.90;99125.58;2135952;83;21385;-65
2021/06/24 00:11:31;;;;;;;32.23;17.10;;;;;;;20.88;76.70;99128.34;2128697;84;21591;-65
2021/06/24 00:14:32;;;;;;;29.90;17.98;;;;;;;20.89;76.58;99139.87;2135895;83;21081;-65
2021/06/24 00:17:34;;;;;;;32.53;16.35;;;;;;;20.84;76.69;99134.97;2135935;83;21576;-65
2021/06/24 00:20:35;;;;;;;33.75;17.70;;;;;;;20.85;76.75;99132.66;2136045;83;21121;-65
2021/06/24 00:23:37;;;;;;;32.50;18.25;;;;;;;20.77;76.74;99128.56;2135919;83;21081;-65
2021/06/24 00:26:38;;;;;;;30.05;16.67;;;;;;;20.72;77.13;99130.88;2135801;83;21105;-65
2021/06/24 00:29:40;;;;;;;29.40;16.65;;;;;;;20.78;77.12;99118.77;2135932;83;21322;-65
2021/06/24 00:32:41;;;;;;;31.97;18.30;;;;;;;20.86;76.94;99102.83;2136042;83;21066;-65
2021/06/24 00:35:43;;;;;;;33.23;19.02;;;;;;;20.97;76.94;99086.59;2135906;83;21081;-65
2021/06/24 00:38:44;;;;;;;32.40;18.57;;;;;;;21.07;76.80;99084.67;2138207;83;21531;-66
2021/06/24 00:41:45;;;;;;;33.53;18.82;;;;;;;21.11;76.80;99072.71;2139095;83;21017;-65
2021/06/24 00:44:47;;;;;;;37.05;19.87;;;;;;;21.13;77.07;99065.06;2139127;82;21494;-65
2021/06/24 00:47:48;;;;;;;37.65;20.97;;;;;;;21.12;77.18;99057.56;2139176;83;20970;-66
2021/06/24 00:50:50;;;;;;;34.75;20.37;;;;;;;21.13;77.25;99058.39;2139082;83;20986;-65
2021/06/24 00:53:51;;;;;;;33.73;21.02;;;;;;;21.11;77.70;99050.04;2138943;83;21037;-66
2021/06/24 00:56:53;;;;;;;37.17;21.15;;;;;;;21.07;77.28;99049.19;2139062;83;21049;-66
2021/06/24 00:59:54;;;;;;;35.08;21.17;;;;;;;21.06;77.54;99051.50;2139108;82;21016;-65
2021/06/24 01:02:56;;;;;;;33.65;21.52;;;;;;;21.04;77.47;99046.83;2139088;83;21004;-66
2021/06/24 01:05:58;;;;;;;;;;;;;;;20.99;77.67;99044.64;2141177;83;21597;-66
2021/06/24 01:08:59;;;;;;;34.33;20.67;;;;;;;20.96;77.76;99039.62;2139198;83;20141;-66
2021/06/24 01:12:01;;;;;;;36.90;20.82;;;;;;;20.97;77.91;99037.78;2139099;83;21532;-66
2021/06/24 01:15:02;;;;;;;33.78;19.30;;;;;;;20.94;78.00;99033.08;2117117;84;21023;-65
2021/06/24 01:18:03;;;;;;;32.85;19.75;;;;;;;20.94;78.02;99033.59;2117010;84;21055;-66
2021/06/24 01:21:05;;;;;;;33.75;19.80;;;;;;;20.97;78.02;99053.27;2116936;84;21043;-65
2021/06/24 01:24:06;;;;;;;35.40;19.87;;;;;;;21.04;77.59;99064.98;2117061;84;21004;-65
2021/06/24 01:27:08;;;;;;;34.92;19.30;;;;;;;21.10;77.76;99063.06;2117016;84;21491;-66
2021/06/24 01:30:09;;;;;;;35.40;19.02;;;;;;;21.16;77.40;99059.41;2117026;84;21007;-66
2021/06/24 01:33:11;;;;;;;37.65;19.60;;;;;;;21.18;77.28;99066.27;2117026;84;21011;-65
2021/06/24 01:36:13;;;;;;;35.38;18.75;;;;;;;21.26;77.10;99069.48;2117097;84;20972;-65
2021/06/24 01:39:15;;;;;;;31.20;18.32;;;;;;;;;;2104282;84;21531;-65
2021/06/24 01:42:17;;;;;;;34.50;19.65;;;;;;;21.39;76.96;99069.92;2101690;85;21548;-66
2021/06/24 01:45:18;;;;;;;35.65;20.57;;;;;;;21.47;76.97;99053.11;2086836;85;21022;-66
2021/06/24 01:48:20;;;;;;;33.05;20.17;;;;;;;21.53;76.65;99055.17;2123822;83;21081;-66
2021/06/24 01:51:22;;;;;;;;;;;;;;;21.53;76.41;99051.16;2090868;85;21065;-65
2021/06/24 01:54:24;;;;;;;35.33;19.25;;;;;;;21.56;76.59;99050.02;2067207;85;20148;-66
2021/06/24 01:57:26;;;;;;;34.53;19.52;;;;;;;21.61;76.88;99038.38;2128320;83;21009;-65
2021/06/24 02:00:28;;;;;;;32.70;17.87;;;;;;;21.63;76.45;99040.37;2110750;84;21554;-66
2021/06/24 02:03:29;;;;;;;35.83;18.87;;;;;;;21.48;76.71;99032.59;2110867;84;21086;-65
2021/06/24 02:06:30;;;;;;;36.85;18.80;;;;;;;21.42;76.80;99034.91;2110686;84;21087;-65
2021/06/24 02:09:33;;;;;;;36.20;18.40;;;;;;;21.42;76.86;99040.25;2110265;84;21075;-65
2021/06/24 02:12:35;;;;;;;32.65;18.32;;;;;;;21.51;76.75;99040.30;2110713;84;21008;-65
2021/06/24 02:15:37;;;;;;;35.73;19.15;;;;;;;21.58;76.67;99028.86;2110593;84;21040;-65
2021/06/24 02:18:38;;;;;;;32.33;18.10;;;;;;;21.66;76.53;99029.89;2110601;84;21634;-65
2021/06/24 02:21:40;;;;;;;31.02;17.67;;;;;;;21.72;76.44;99032.77;2110842;84;21144;-65
2021/06/24 02:24:41;;;;;;;32.53;17.92;;;;;;;21.77;76.26;99027.77;2110687;84;20984;-66
2021/06/24 02:27:42;;;;;;;31.80;18.25;;;;;;;21.73;76.27;99028.25;2110781;84;21040;-65
2021/06/24 02:30:44;;;;;;;32.40;17.60;;;;;;;21.67;76.09;99032.91;2110728;84;20995;-65
2021/06/24 02:33:45;;;;;;;35.85;18.75;;;;;;;21.63;76.27;99031.86;2110719;84;21645;-65
2021/06/24 02:36:47;;;;;;;29.80;17.87;;;;;;;21.63;76.42;99031.86;2110651;84;21043;-65
2021/06/24 02:39:48;;;;;;;30.92;18.20;;;;;;;21.62;76.25;99036.03;2115228;84;21027;-65
2021/06/24 02:42:50;;;;;;;31.55;17.92;;;;;;;21.69;76.28;99041.58;2116126;84;21019;-65
2021/06/24 02:45:51;;;;;;;32.80;18.75;;;;;;;21.72;76.09;99042.11;2115932;84;21060;-66
2021/06/24 02:48:53;;;;;;;31.30;18.42;;;;;;;21.72;75.95;99043.44;2115973;84;21546;-65
2021/06/24 02:51:55;;;;;;;32.40;17.45;;;;;;;21.68;75.96;99044.75;2115889;84;21007;-66
2021/06/24 02:54:57;;;;;;;32.38;18.65;;;;;;;21.53;76.10;99049.00;2115693;84;21535;-65
2021/06/24 02:57:58;;;;;;;36.80;19.57;;;;;;;21.46;76.44;99028.75;2116114;84;21011;-65
2021/06/24 03:01:00;;;;;;;34.63;18.40;;;;;;;21.37;76.75;99023.87;2115999;84;21027;-65
2021/06/24 03:04:02;;;;;;;30.40;17.67;;;;;;;21.39;76.88;99019.23;2116095;84;21090;-66
2021/06/24 03:07:03;;;;;;;29.92;17.23;;;;;;;21.44;76.63;99022.23;2115987;84;20995;-65
2021/06/24 03:10:05;;;;;;;30.50;18.02;;;;;;;21.52;76.61;99021.50;2115992;84;21498;-65
2021/06/24 03:13:06;;;;;;;29.77;17.62;;;;;;;21.59;76.37;99015.00;2115940;84;21028;-65
2021/06/24 03:16:08;;;;;;;30.80;17.70;;;;;;;21.66;76.32;99016.03;2115927;84;20992;-65
2021/06/24 03:19:09;;;;;;;33.45;18.37;;;;;;;21.73;76.24;99016.23;2115993;84;20983;-65
2021/06/24 03:22:11;;;;;;;34.35;19.15;;;;;;;21.84;76.03;99013.77;2115966;84;21016;-65
2021/06/24 03:25:12;;;;;;;35.92;20.10;;;;;;;21.94;75.99;99011.31;2115986;83;21530;-66
2021/06/24 03:28:14;;;;;;;34.18;20.37;;;;;;;22.11;75.78;99011.34;2115936;84;20996;-66
2021/06/24 03:31:15;;;;;;;34.43;20.05;;;;;;;22.20;75.41;99006.37;2115979;84;21553;-66
2021/06/24 03:34:17;;;;;;;33.05;19.52;;;;;;;22.27;75.23;98999.88;2116050;84;21036;-65
2021/06/24 03:37:18;;;;;;;33.02;19.37;;;;;;;22.36;75.37;98983.39;2115960;84;21020;-66
2021/06/24 03:40:20;;;;;;;31.93;19.15;;;;;;;22.44;75.02;98982.03;2115965;84;21150;-66
2021/06/24 03:43:21;;;;;;;32.73;19.42;;;;;;;22.46;74.66;98980.88;2116032;84;21019;-66
2021/06/24 03:46:23;;;;;;;38.67;20.92;;;;;;;22.44;74.69;98976.69;2115939;84;21503;-66
2021/06/24 03:49:24;;;;;;;36.90;21.10;;;;;;;22.49;74.70;98956.48;2116103;84;21044;-65
2021/06/24 03:52:26;;;;;;;32.90;20.95;;;;;;;22.60;74.73;98946.48;2116011;84;21011;-65
2021/06/24 03:58:30;;;;;;;34.67;20.52;;;;;;;22.80;74.09;98944.27;2086242;84;21039;-66
2021/06/24 04:01:32;;;;;;;33.70;21.42;;;;;;;22.79;73.75;98942.61;2115962;84;20972;-65
2021/06/24 04:04:34;;;;;;;39.73;22.95;;;;;;;22.82;73.73;98943.61;2115952;84;20988;-65
2021/06/24 04:07:35;;;;;;;35.80;22.25;;;;;;;22.84;74.08;98938.43;2115893;84;21012;-66
2021/06/24 04:10:36;;;;;;;39.13;23.10;;;;;;;22.97;74.00;98957.11;2115971;84;21514;-66
2021/06/24 04:13:38;;;;;;;39.85;23.42;;;;;;;23.23;73.69;98968.11;2115647;84;21076;-66
2021/06/24 04:16:40;;;;;;;35.45;22.45;;;;;;;23.42;73.25;98964.20;2115913;84;21035;-66
2021/06/24 04:19:43;;;;;;;35.85;23.27;;;;;;;23.59;72.62;98973.86;2116074;83;21003;-66
2021/06/24 04:22:44;;;;;;;36.73;22.77;;;;;;;23.76;72.53;98972.42;2115824;84;21498;-66
2021/06/24 04:25:46;;;;;;;40.35;23.32;;;;;;;23.83;71.91;98977.41;2116073;84;21074;-66
2021/06/24 04:28:47;;;;;;;36.80;22.07;;;;;;;23.94;71.98;98993.12;2115913;84;21070;-66
2021/06/24 04:31:49;;;;;;;33.98;21.82;;;;;;;24.10;71.28;99006.10;2115951;84;21023;-66
2021/06/24 04:34:50;;;;;;;35.92;22.37;;;;;;;23.92;71.32;99003.19;2115878;84;21039;-66
2021/06/24 04:37:52;;;;;;;39.40;23.18;;;;;;;23.94;71.21;99001.67;2115295;83;21494;-66
2021/06/24 04:40:53;;;;;;;38.48;23.50;;;;;;;24.05;71.19;99002.62;2110894;84;21108;-66
2021/06/24 04:43:54;;;;;;;35.85;22.42;;;;;;;24.20;70.75;99008.04;2110657;84;21023;-66
2021/06/24 04:46:56;;;;;;;36.20;23.25;;;;;;;24.33;70.44;99006.12;2110704;84;21091;-66
2021/06/24 04:49:57;;;;;;;36.63;22.67;;;;;;;24.56;69.79;98998.07;2110786;84;21116;-66
2021/06/24 04:52:59;;;;;;;34.13;22.52;;;;;;;24.73;69.87;98992.10;2110794;84;21575;-66
2021/06/24 04:56:00;;;;;;;35.92;22.82;;;;;;;24.99;69.00;98978.79;2110736;84;21087;-66
2021/06/24 04:59:02;;;;;;;36.68;22.27;;;;;;;25.17;68.20;98968.54;2110824;84;21044;-66
2021/06/24 05:02:03;;;;;;;40.00;24.15;;;;;;;25.37;67.77;98971.53;2110722;84;21642;-66
2021/06/24 05:05:06;;;;;;;35.83;22.70;;;;;;;25.50;66.60;98965.51;2110819;84;20988;-67
2021/06/24 05:08:08;;;;;;;35.15;21.95;;;;;;;25.28;66.02;98973.94;2110903;84;21060;-66
2021/06/24 05:11:11;;;;;;;33.30;22.07;;;;;;;25.23;66.87;98965.11;2110641;84;21594;-66
2021/06/24 05:14:12;;;;;;;36.58;21.52;;;;;;;25.34;67.17;98964.34;2110453;84;21047;-66
2021/06/24 05:17:14;;;;;;;35.52;21.82;;;;;;;25.49;67.35;98948.24;2110744;84;21008;-66
2021/06/24 05:20:15;;;;;;;34.33;22.13;;;;;;;25.78;67.14;98945.18;2110761;84;21539;-66
2021/06/24 05:23:17;;;;;;;34.45;20.88;;;;;;;26.19;66.67;98937.88;2110893;84;21087;-66
2021/06/24 05:26:18;;;;;;;35.52;20.97;;;;;;;26.66;64.00;98934.26;2110747;84;21091;-67
2021/06/24 05:29:19;;;;;;;32.30;19.45;;;;;;;26.90;63.81;98938.40;2110790;84;21123;-67
2021/06/24 05:32:22;;;;;;;33.10;19.85;;;;;;;27.23;63.04;98930.52;2110361;84;21054;-67
2021/06/24 05:35:23;;;;;;;34.33;18.55;;;;;;;27.44;63.77;98928.77;2110660;84;21070;-67
2021/06/24 05:38:25;;;;;;;34.65;20.17;;;;;;;27.59;62.15;98924.08;2110648;84;21120;-69
2021/06/24 05:41:27;;;;;;;31.97;18.30;;;;;;;27.62;61.84;98927.70;2110772;84;21571;-66
2021/06/24 05:44:29;;;;;;;32.45;19.35;;;;;;;27.70;62.28;98930.76;2110185;84;21092;-66
2021/06/24 05:47:30;;;;;;;31.93;18.32;;;;;;;27.83;62.18;98932.66;2110581;84;21562;-66
2021/06/24 05:50:32;;;;;;;;;;;;;;;27.86;61.64;98931.41;2113193;84;21112;-66
2021/06/24 05:53:34;;;;;;;33.70;20.30;;;;;;;27.88;60.91;98947.69;2088699;84;20140;-66
2021/06/24 05:56:35;;;;;;;33.33;19.52;;;;;;;27.78;60.85;98969.63;2067092;85;21020;-65
2021/06/24 05:59:37;;;;;;;;;;;;;;;27.41;58.86;98988.42;2069398;86;21096;-66
2021/06/24 06:02:39;;;;;;;33.33;18.87;;;;;;;26.47;61.24;99011.06;2067068;86;20427;-66
2021/06/24 06:05:41;;;;;;;35.05;22.60;;;;;;;25.80;62.76;99034.45;2066809;86;21587;-66
2021/06/24 06:08:42;;;;;;;;;;;;;;;25.21;64.40;99022.17;2069536;86;20997;-66
2021/06/24 06:11:44;;;;;;;36.65;23.05;;;;;;;24.95;65.35;99025.77;2069672;85;20439;-64
2021/06/24 06:14:46;;;;;;;36.15;22.42;;;;;;;24.56;66.90;99039.63;2101680;85;21047;-65
2021/06/24 06:17:48;;;;;;;35.78;22.58;;;;;;;24.33;67.38;99047.14;2101632;85;21000;-65
2021/06/24 06:20:49;;;;;;;36.48;22.15;;;;;;;24.21;67.70;99044.04;2101719;85;21524;-64
2021/06/24 06:23:51;;;;;;;;;;;;;;;24.03;68.20;99045.66;2104079;85;21049;-63
2021/06/24 06:26:52;;;;;;;36.58;22.98;;;;;;;23.92;68.64;99055.91;2101728;85;20134;-64
2021/06/24 06:29:54;;;;;;;37.50;23.18;;;;;;;23.78;68.82;99029.34;2101660;85;20962;-63
2021/06/24 06:32:55;;;;;;;36.30;24.18;;;;;;;23.90;68.67;99017.23;2101728;85;20950;-65
2021/06/24 06:35:57;;;;;;;34.40;21.80;;;;;;;24.01;68.63;99026.23;2101591;85;21603;-62
2021/06/24 06:38:58;;;;;;;34.65;22.22;;;;;;;23.98;68.74;99036.47;2109440;83;21096;-65
2021/06/24 06:42:00;;;;;;;36.93;21.45;;;;;;;23.88;68.43;99044.72;2135635;82;21452;-65
2021/06/24 06:45:02;;;;;;;33.95;22.25;;;;;;;24.02;68.42;99043.13;2135731;83;21101;-63
2021/06/24 06:48:04;;;;;;;31.45;20.35;;;;;;;24.34;67.86;99043.45;2135656;83;21057;-63
2021/06/24 06:51:05;;;;;;;32.95;20.92;;;;;;;24.55;67.88;99071.46;2135728;83;21108;-65
2021/06/24 06:54:07;;;;;;;34.83;20.32;;;;;;;24.18;67.83;99131.48;2135658;83;21100;-63
2021/06/24 06:57:08;;;;;;;30.65;16.45;;;;;;;23.32;70.16;99177.16;2135849;83;21089;-63
2021/06/24 07:00:10;;;;;;;26.10;12.95;;;;;;;22.58;71.16;99189.03;2135444;83;21698;-63
2021/06/24 07:03:14;;;;;;;24.92;11.00;;;;;;;21.94;71.85;99144.82;2135760;83;21580;-63
2021/06/24 07:06:15;;;;;;;22.27;10.53;;;;;;;21.61;72.61;99089.09;2135738;82;21616;-63
2021/06/24 07:09:18;;;;;;;24.27;11.05;;;;;;;21.49;72.43;99080.45;2135803;82;21112;-63
2021/06/24 07:12:20;;;;;;;24.95;10.50;;;;;;;21.53;72.13;99091.70;2135692;83;21112;-65
2021/06/24 07:15:22;;;;;;;25.30;10.85;;;;;;;21.59;72.21;99079.05;2135715;83;21513;-65
2021/06/24 07:18:24;;;;;;;;;;;;;;;21.73;71.78;99072.30;2138195;83;21560;-65
2021/06/24 07:21:25;;;;;;;21.85;10.53;;;;;;;21.95;71.48;99068.20;2135801;83;20122;-65
2021/06/24 07:24:27;;;;;;;27.48;12.47;;;;;;;22.31;70.63;99071.99;2135808;83;21053;-64
2021/06/24 07:27:28;;;;;;;27.42;12.10;;;;;;;22.63;70.46;99063.24;2128621;84;20965;-64
2021/06/24 07:30:30;;;;;;;26.80;11.78;;;;;;;22.99;68.78;99067.44;2135822;83;21077;-63
2021/06/24 07:33:33;;;;;;;22.50;10.45;;;;;;;23.24;68.29;99062.92;2135829;83;21085;-65
2021/06/24 07:36:34;;;;;;;23.52;10.53;;;;;;;23.58;66.87;99059.18;2135517;82;21072;-65
2021/06/24 07:39:36;;;;;;;25.27;11.00;;;;;;;24.06;66.81;99051.66;2130823;83;21074;-65
2021/06/24 07:42:38;;;;;;;;;;;;;;;24.50;66.21;99039.83;2126226;84;21573;-67
2021/06/24 07:45:40;;;;;;;21.68;9.98;;;;;;;25.11;63.46;99030.15;2123839;84;20168;-65
2021/06/24 07:48:41;;;;;;;;;;;;;;;25.52;62.51;99016.33;2120254;84;21064;-69
2021/06/24 07:51:43;;;;;;;22.07;10.50;;;;;;;26.05;63.23;99014.34;2088275;85;20164;-65
2021/06/24 07:54:45;;;;;;;25.12;10.63;;;;;;;26.55;60.30;99009.56;2088422;85;20986;-66
2021/06/24 07:57:46;;;;;;;21.68;10.00;;;;;;;26.96;60.34;99004.36;2088307;85;21110;-65
2021/06/24 08:00:48;;;;;;;22.00;10.35;;;;;;;27.20;57.44;99003.61;2088352;85;21021;-65
2021/06/24 08:03:51;;;;;;;23.77;10.48;;;;;;;27.01;55.94;98988.14;2104885;84;21062;-66
2021/06/24 08:06:53;;;;;;;23.52;9.90;;;;;;;26.95;58.08;98984.38;2121681;84;21085;-65
2021/06/24 08:10:01;;;;;;;21.45;10.00;;;;;;;27.41;57.67;98979.00;2123301;83;21100;-65
2021/06/24 08:12:58;;;;;;;23.90;10.28;;;;;;;27.58;56.07;98982.19;2097795;84;21066;-66
2021/06/24 08:16:00;;;;;;;;;;;;;;;27.90;54.17;98976.63;2126092;84;21623;-65
2021/06/24 08:19:02;;;;;;;22.62;10.13;;;;;;;28.13;55.08;98971.41;2123664;84;20182;-66
2021/06/24 08:22:04;;;;;;;23.38;9.45;;;;;;;28.15;52.47;98958.05;2123834;84;20970;-67
2021/06/24 08:25:06;;;;;;;23.57;11.63;;;;;;;28.28;54.49;98951.03;2067279;85;21004;-66
2021/06/24 08:28:08;;;;;;;20.62;9.80;;;;;;;28.50;53.63;98955.20;2128581;84;21469;-66
2021/06/24 08:31:09;;;;;;;21.05;10.28;;;;;;;28.69;54.56;98952.22;2110630;84;21059;-66
2021/06/24 08:34:11;;;;;;;;;;;;;;;29.04;51.98;98941.16;2113267;84;21072;-65
2021/06/24 08:37:12;;;;;;;22.65;10.48;;;;;;;29.22;51.94;98926.16;2111021;84;20115;-64
2021/06/24 08:40:14;;;;;;;22.73;10.45;;;;;;;29.41;53.11;98920.43;2110646;84;21092;-65
2021/06/24 08:43:15;;;;;;;;;;;;;;;29.85;52.82;98916.59;2113287;84;21551;-66
2021/06/24 08:46:16;;;;;;;22.95;11.33;;;;;;;30.02;51.11;98929.90;2110658;84;20107;-65
2021/06/24 08:49:18;;;;;;;29.02;11.93;;;;;;;30.25;51.92;98937.98;2110728;84;21052;-66
2021/06/24 08:52:19;;;;;;;25.40;11.80;;;;;;;30.57;51.05;98944.22;2110773;84;21052;-65
2021/06/24 08:55:21;;;;;;;23.50;12.35;;;;;;;30.77;49.95;98933.72;2110652;84;21590;-67
2021/06/24 08:58:24;;;;;;;24.05;12.78;;;;;;;30.78;47.71;98935.92;2110679;84;21000;-67
2021/06/24 09:01:25;;;;;;;24.60;12.82;;;;;;;30.62;48.31;98925.95;2110527;84;20995;-67
2021/06/24 09:04:27;;;;;;;24.52;13.32;;;;;;;30.76;49.36;98930.73;2110611;84;21059;-66
2021/06/24 09:07:29;;;;;;;25.62;14.53;;;;;;;31.06;50.02;98930.03;2110640;84;21554;-66
2021/06/24 09:10:30;;;;;;;28.15;14.35;;;;;;;31.46;50.40;98934.17;2110840;84;21076;-68
2021/06/24 09:13:32;;;;;;;28.80;14.70;;;;;;;31.81;49.71;98928.96;2110433;84;21114;-68
2021/06/24 09:16:34;;;;;;;27.45;14.63;;;;;;;32.07;48.94;98926.39;2110268;84;21028;-68
2021/06/24 09:19:35;;;;;;;26.27;14.30;;;;;;;32.39;49.06;98926.67;2110499;84;21099;-68
2021/06/24 09:22:37;;;;;;;28.67;14.98;;;;;;;32.60;48.35;98920.67;2110641;84;21071;-69
2021/06/24 09:25:39;;;;;;;28.38;13.83;;;;;;;32.74;47.73;98916.39;2110505;84;21527;-67
2021/06/24 09:28:40;;;;;;;27.70;15.05;;;;;;;32.72;45.71;98919.34;2110812;84;21073;-66
2021/06/24 09:31:43;;;;;;;27.60;14.83;;;;;;;32.65;45.74;98918.59;2110557;84;21036;-66
2021/06/24 09:34:45;;;;;;;25.17;13.90;;;;;;;32.60;47.27;98923.92;2110560;84;21023;-66
2021/06/24 09:37:46;;;;;;;26.87;14.55;;;;;;;32.82;46.97;98918.75;2110549;84;21637;-66
2021/06/24 09:40:48;;;;;;;30.20;13.85;;;;;;;32.93;46.37;98917.92;2110232;84;21535;-67
2021/06/24 09:43:49;;;;;;;28.70;14.23;;;;;;;33.12;45.44;98915.88;2110560;84;21047;-67
2021/06/24 09:46:51;;;;;;;27.15;13.43;;;;;;;33.29;46.10;98920.63;2110588;84;21550;-68
2021/06/24 09:49:52;;;;;;;25.05;13.38;;;;;;;33.53;45.21;98919.99;2110661;84;21056;-67
2021/06/24 09:52:54;;;;;;;26.70;13.93;;;;;;;33.73;45.28;98919.56;2110577;84;21008;-66
2021/06/24 09:55:56;;;;;;;29.25;13.95;;;;;;;34.03;45.29;98911.72;2110417;84;21075;-67
2021/06/24 09:58:58;;;;;;;27.27;13.53;;;;;;;34.26;44.34;98905.84;2110557;84;21550;-68
2021/06/24 10:01:59;;;;;;;24.95;13.13;;;;;;;34.58;44.25;98910.73;2110556;84;20992;-68
2021/06/24 10:05:01;;;;;;;26.12;14.03;;;;;;;34.88;42.25;98907.66;2110425;84;21078;-68
2021/06/24 10:08:02;;;;;;;26.05;13.10;;;;;;;35.14;42.74;98897.09;2110609;84;21056;-67
2021/06/24 10:11:04;;;;;;;25.72;13.68;;;;;;;35.26;42.86;98903.78;2110688;84;21064;-67
2021/06/24 10:14:06;;;;;;;26.77;13.43;;;;;;;35.47;42.38;98899.44;2110517;84;21068;-69
2021/06/24 10:17:07;;;;;;;27.67;12.70;;;;;;;35.69;42.09;98905.69;2110493;84;21533;-69
2021/06/24 10:20:09;;;;;;;24.82;12.68;;;;;;;35.77;42.00;98900.30;2110509;84;21063;-68
2021/06/24 10:23:10;;;;;;;26.35;12.47;;;;;;;35.80;41.00;98901.17;2110587;84;21076;-70
2021/06/24 10:26:12;;;;;;;28.80;12.70;;;;;;;35.67;41.34;98905.66;2110564;84;21033;-69
2021/06/24 10:29:14;;;;;;;23.52;12.75;;;;;;;35.80;41.16;98906.63;2110834;84;21115;-69
2021/06/24 10:32:16;;;;;;;25.48;11.25;;;;;;;36.03;41.14;98898.70;2110454;84;21094;-68
2021/06/24 10:35:17;;;;;;;27.45;11.63;;;;;;;36.25;38.83;98886.31;2110469;84;21526;-67
2021/06/24 10:38:19;;;;;;;25.40;12.18;;;;;;;36.27;39.79;98893.42;2110619;84;21044;-68
2021/06/24 10:41:20;;;;;;;27.67;11.50;;;;;;;36.11;39.20;98892.48;2110433;84;21056;-66
2021/06/24 10:44:22;;;;;;;25.95;11.93;;;;;;;36.17;38.89;98890.88;2110516;84;20996;-69
2021/06/24 10:47:23;;;;;;;26.55;11.65;;;;;;;36.18;39.04;98890.36;2110449;84;21698;-68
2021/06/24 10:50:25;;;;;;;23.75;11.45;;;;;;;36.39;38.80;98879.91;2110174;84;21052;-68
2021/06/24 10:53:28;;;;;;;25.57;11.45;;;;;;;36.67;38.11;98884.72;2110176;84;21038;-69
2021/06/24 10:56:30;;;;;;;26.27;11.78;;;;;;;36.71;38.37;98887.20;2110486;84;21004;-69
2021/06/24 10:59:31;;;;;;;24.43;11.48;;;;;;;36.80;38.11;98882.65;2110403;84;21099;-69
2021/06/24 11:02:33;;;;;;;27.20;11.60;;;;;;;37.02;37.88;98886.58;2110507;84;21031;-69
2021/06/24 11:05:35;;;;;;;26.77;11.93;;;;;;;37.08;37.54;98879.51;2110450;84;21523;-69
2021/06/24 11:08:40;;;;;;;27.15;11.75;;;;;;;37.22;37.89;98882.55;2110653;84;21048;-67
2021/06/24 11:11:43;;;;;;;26.50;11.25;;;;;;;37.33;36.99;98879.91;2084958;84;21036;-69
2021/06/24 11:14:44;;;;;;;25.30;10.80;;;;;;;37.57;37.36;98874.23;2084947;84;21047;-69
2021/06/24 11:17:49;;;;;;;29.18;11.50;;;;;;;37.87;36.74;98873.20;2110545;84;21035;-69
2021/06/24 11:20:50;;;;;;;25.08;10.80;;;;;;;37.96;35.75;98874.31;2084773;84;21015;-69
2021/06/24 11:23:53;;;;;;;24.55;11.28;;;;;;;37.93;35.88;98868.00;2110494;84;21043;-69
2021/06/24 11:26:55;;;;;;;22.50;11.40;;;;;;;37.34;34.80;98878.80;2110015;84;20983;-70
2021/06/24 11:29:58;;;;;;;25.82;12.20;;;;;;;37.26;36.30;98878.23;2110193;84;21518;-70
2021/06/24 11:33:00;;;;;;;24.02;11.05;;;;;;;37.43;35.33;98870.36;2110566;84;21043;-71
2021/06/24 11:36:09;;;;;;;25.37;10.80;;;;;;;37.57;35.69;98871.49;2110526;84;21535;-69
2021/06/24 11:39:05;;;;;;;25.27;10.85;;;;;;;37.95;34.81;98867.19;2084942;84;21466;-69
2021/06/24 11:42:06;;;;;;;28.12;10.93;;;;;;;37.47;32.60;98875.58;2115177;83;21039;-67
2021/06/24 11:45:08;;;;;;;23.90;10.55;;;;;;;36.83;33.41;98872.55;2115795;84;21044;-65
2021/06/24 11:48:09;;;;;;;25.45;10.60;;;;;;;36.41;33.56;98861.34;2115915;84;21586;-67
2021/06/24 12:03:25;;;;;;;26.87;11.08;;;;;;;36.52;34.64;98853.20;2086586;84;21008;-67
2021/06/24 12:06:26;;;;;;;24.92;10.72;;;;;;;36.57;34.56;98853.25;2116171;84;21554;-66
2021/06/24 12:09:27;;;;;;;25.43;10.93;;;;;;;36.11;35.02;98846.89;2116101;83;21063;-70
2021/06/24 12:12:30;;;;;;;25.77;11.00;;;;;;;35.84;35.21;98843.66;2116079;84;21075;-68
2021/06/24 12:15:32;;;;;;;26.68;11.05;;;;;;;36.10;36.01;98843.88;2116184;84;21079;-67
2021/06/24 12:18:34;;;;;;;26.12;10.90;;;;;;;36.28;35.42;98839.93;2116055;84;21115;-67
2021/06/24 12:21:36;;;;;;;25.68;12.20;;;;;;;36.18;34.01;98838.50;2116014;84;21634;-66
2021/06/24 12:24:38;;;;;;;28.25;11.60;;;;;;;35.76;34.99;98841.39;2116034;84;21048;-66
2021/06/24 12:27:39;;;;;;;26.35;11.00;;;;;;;36.08;34.78;98829.13;2116084;84;21599;-66
2021/06/24 12:30:42;;;;;;;26.85;11.68;;;;;;;36.25;34.36;98830.35;2116135;84;21083;-66
2021/06/24 12:33:43;;;;;;;23.42;11.83;;;;;;;36.33;35.29;98833.70;2116077;84;20992;-67
2021/06/24 12:36:47;;;;;;;24.55;10.93;;;;;;;35.71;34.95;98822.23;2115843;84;21015;-66
2021/06/24 12:39:49;;;;;;;27.62;11.20;;;;;;;35.46;35.19;98812.73;2086413;84;21004;-68
2021/06/24 12:42:50;;;;;;;24.18;9.90;;;;;;;36.10;35.58;98815.77;2110737;84;21079;-67
2021/06/24 12:45:52;;;;;;;25.27;10.50;;;;;;;36.32;33.12;98814.30;2110424;84;21518;-66
2021/06/24 12:48:54;;;;;;;25.55;10.25;;;;;;;35.77;35.12;98803.47;2110527;84;21115;-66
2021/06/24 12:51:55;;;;;;;27.42;10.78;;;;;;;35.77;34.40;98798.01;2110649;84;21539;-67
2021/06/24 12:54:57;;;;;;;28.20;11.10;;;;;;;35.92;36.13;98786.97;2110550;84;20996;-65
2021/06/24 12:57:59;;;;;;;25.27;10.75;;;;;;;36.70;34.19;98783.67;2110615;84;21551;-68
2021/06/24 13:01:09;;;;;;;24.95;9.75;;;;;;;36.72;33.56;98767.82;2110587;84;21092;-66
2021/06/24 13:04:04;;;;;;;28.20;10.53;;;;;;;36.48;32.08;98755.98;2085085;84;21032;-66
2021/06/24 13:07:05;;;;;;;24.75;11.03;;;;;;;36.35;33.76;98749.09;2110653;84;21562;-65
2021/06/24 13:10:07;;;;;;;25.45;10.72;;;;;;;35.85;33.94;98754.47;2110770;84;21079;-67
2021/06/24 13:13:08;;;;;;;26.73;11.28;;;;;;;34.90;34.99;98755.70;2110816;84;21028;-66
2021/06/24 13:16:10;;;;;;;30.57;12.47;;;;;;;34.03;35.84;98767.52;2110604;84;21151;-66
2021/06/24 13:19:11;;;;;;;25.90;12.05;;;;;;;33.47;36.83;98760.05;2110261;84;21066;-66
2021/06/24 13:22:13;;;;;;;23.57;11.55;;;;;;;33.34;38.04;98763.09;2110705;84;21051;-66
2021/06/24 13:25:14;;;;;;;24.45;11.35;;;;;;;33.16;38.57;98757.31;2110533;84;21144;-70
2021/06/24 13:28:16;;;;;;;32.40;12.50;;;;;;;33.02;38.45;98754.59;2110615;84;21599;-66
2021/06/24 13:31:17;;;;;;;29.70;12.40;;;;;;;32.98;38.92;98755.59;2110777;84;21072;-69
2021/06/24 13:34:19;;;;;;;26.25;12.10;;;;;;;32.89;39.37;98754.34;2110659;84;21067;-70
2021/06/24 13:37:20;;;;;;;29.92;12.00;;;;;;;32.77;39.90;98723.13;2110654;84;21114;-70
2021/06/24 13:40:22;;;;;;;25.68;11.95;;;;;;;32.61;40.60;98711.95;2110870;83;21044;-70
2021/06/24 13:43:25;;;;;;;26.90;12.28;;;;;;;32.51;40.92;98747.00;2115758;84;21565;-70
2021/06/24 13:46:27;;;;;;;29.05;11.85;;;;;;;32.55;41.62;98771.25;2115896;84;21546;-69
2021/06/24 13:49:28;;;;;;;32.10;13.10;;;;;;;32.47;40.80;98748.02;2115934;84;21018;-69
2021/06/24 13:52:30;;;;;;;26.65;11.95;;;;;;;32.21;41.92;98726.30;2115927;84;21083;-69
2021/06/24 13:55:38;;;;;;;27.65;11.53;;;;;;;31.94;42.72;98746.27;2116106;84;21095;-69
2021/06/24 13:58:34;;;;;;;26.35;12.15;;;;;;;31.94;43.05;98759.28;2086361;84;21522;-69
2021/06/24 14:01:36;;;;;;;30.55;13.05;;;;;;;32.00;42.19;98763.48;2115932;84;21015;-69
2021/06/24 14:04:37;;;;;;;30.35;12.78;;;;;;;31.88;43.36;98763.45;2115962;84;21539;-69
2021/06/24 14:07:39;;;;;;;26.87;11.78;;;;;;;31.80;43.31;98767.88;2116009;84;21048;-69
2021/06/24 14:10:40;;;;;;;27.35;12.45;;;;;;;31.77;44.45;98768.63;2115837;83;21110;-69
2021/06/24 14:13:42;;;;;;;27.80;13.43;;;;;;;31.69;45.01;98755.94;2115922;84;21035;-69
2021/06/24 14:16:43;;;;;;;29.63;13.13;;;;;;;31.66;46.02;98749.64;2115871;84;21042;-69